Time;durP1;ratioP1;P1;durP2;ratioP2;P2;SDS_P1;SDS_P2;PMS_P1;PMS_P2;Temp;Humidity;BMP_temperature;BMP_pressure;BME280_temperature;BME280_humidity;BME280_pressure;Samples;Min_cycle;Max_cycle;Signal;HPM_P1;HPM_P2
2023/01/19 00:01:15;;;;;;;;;;;1.70;99.90;;;;;;5073921;28;20358;-60
2023/01/19 00:03:41;;;;;;;;;;;1.60;99.90;;;;;;5073655;28;19928;-60
2023/01/19 00:06:07;;;;;;;;;;;1.70;99.90;;;;;;5073864;28;19913;-60
2023/01/19 00:08:33;;;;;;;;;;;1.70;99.90;;;;;;5073921;28;20339;-60
2023/01/19 00:10:59;;;;;;;;;;;1.70;99.90;;;;;;5073658;28;20259;-60
2023/01/19 00:13:24;;;;;;;;;;;1.70;99.90;;;;;;5073296;28;19927;-60
2023/01/19 00:15:50;;;;;;;;;;;1.70;99.90;;;;;;5073545;28;20007;-60
2023/01/19 00:18:15;;;;;;;;;;;1.70;99.90;;;;;;5073468;28;19958;-60
2023/01/19 00:20:41;;;;;;;;;;;1.70;99.90;;;;;;5073725;28;19912;-61
2023/01/19 00:23:06;;;;;;;;;;;1.70;99.90;;;;;;5073748;28;20331;-61
2023/01/19 00:25:32;;;;;;;;;;;1.70;99.90;;;;;;5073718;28;19944;-60
2023/01/19 00:27:58;;;;;;;;;;;1.70;99.90;;;;;;5073681;28;20020;-60
2023/01/19 00:30:23;;;;;;;;;;;1.60;99.90;;;;;;5073391;28;19908;-61
2023/01/19 00:32:49;;;;;;;;;;;1.60;99.90;;;;;;5073268;28;20324;-60
2023/01/19 00:35:14;;;;;;;;;;;1.60;99.90;;;;;;5075797;28;19915;-61
2023/01/19 00:37:40;;;;;;;;;;;1.50;99.90;;;;;;5077352;28;19908;-60
2023/01/19 00:40:06;;;;;;;;;;;1.50;99.90;;;;;;5077615;28;20035;-60
2023/01/19 00:42:47;;;;;;;;;;;1.50;99.90;;;;;;5077508;28;20378;-60
2023/01/19 00:45:14;;;;;;;;;;;1.60;99.90;;;;;;5077233;28;19912;-60
2023/01/19 00:47:39;;;;;;;;;;;1.60;99.90;;;;;;5077407;28;19908;-60
2023/01/19 00:50:05;;;;;;;;;;;1.50;99.90;;;;;;5077367;28;19974;-60
2023/01/19 00:52:31;;;;;;;;;;;1.50;99.90;;;;;;5077270;28;20015;-61
2023/01/19 00:54:56;;;;;;;;;;;1.60;99.90;;;;;;5077006;28;19975;-61
2023/01/19 00:57:22;;;;;;;;;;;1.60;99.90;;;;;;5077228;28;19962;-61
2023/01/19 00:59:47;;;;;;;;;;;1.60;99.90;;;;;;5077243;28;19951;-60
2023/01/19 01:02:13;;;;;;;;;;;1.50;99.90;;;;;;5077090;28;20266;-60
2023/01/19 01:04:39;;;;;;;;;;;1.50;99.90;;;;;;5076832;28;19915;-61
2023/01/19 01:07:04;;;;;;;;;;;1.40;99.90;;;;;;5076994;28;19909;-60
2023/01/19 01:09:30;;;;;;;;;;;1.40;99.90;;;;;;5076787;28;19942;-60
2023/01/19 01:11:55;;;;;;;;;;;1.40;99.90;;;;;;5076438;28;20289;-61
2023/01/19 01:14:21;;;;;;;;;;;1.50;99.90;;;;;;5076840;28;20014;-61
2023/01/19 01:16:47;;;;;;;;;;;1.60;99.90;;;;;;5076622;28;19908;-61
2023/01/19 01:19:12;;;;;;;;;;;1.60;99.90;;;;;;5076811;28;19999;-61
2023/01/19 01:21:38;;;;;;;;;;;1.70;99.90;;;;;;5076799;28;19908;-61
2023/01/19 01:24:03;;;;;;;;;;;1.70;99.90;;;;;;5076776;28;20358;-60
2023/01/19 01:26:29;;;;;;;;;;;1.80;99.90;;;;;;5076434;28;20397;-61
2023/01/19 01:28:54;;;;;;;;;;;1.80;99.90;;;;;;5076382;28;19909;-60
2023/01/19 01:31:20;;;;;;;;;;;1.80;99.90;;;;;;5076638;28;19908;-60
2023/01/19 01:33:45;;;;;;;;;;;1.80;99.90;;;;;;5076519;28;19912;-61
2023/01/19 01:36:11;;;;;;;;;;;1.70;99.90;;;;;;5076534;28;20003;-61
2023/01/19 01:38:37;;;;;;;;;;;1.70;99.90;;;;;;5058437;28;20358;-60
2023/01/19 01:41:03;;;;;;;;;;;1.70;99.90;;;;;;5076448;28;19909;-60
2023/01/19 01:43:48;;;;;;;;;;;1.70;99.90;;;;;;5076418;28;19909;-60
2023/01/19 01:46:14;;;;;;;;;;;1.80;99.90;;;;;;5075472;28;19909;-60
2023/01/19 01:48:42;;;;;;;;;;;1.80;99.90;;;;;;5076314;28;19915;-61
2023/01/19 01:51:26;;;;;;;;;;;1.80;99.90;;;;;;5076299;28;19909;-60
2023/01/19 01:53:56;;;;;;;;;;;1.80;99.90;;;;;;5075919;28;19912;-60
2023/01/19 01:56:24;;;;;;;;;;;1.90;99.90;;;;;;5075880;28;19908;-60
2023/01/19 01:58:49;;;;;;;;;;;2.00;99.90;;;;;;5075871;28;20435;-60
2023/01/19 02:04:00;;;;;;;;;;;2.00;99.90;;;;;;5075455;28;19909;-60
2023/01/19 02:06:26;;;;;;;;;;;1.90;99.90;;;;;;5075985;28;19915;-60
2023/01/19 02:14:25;;;;;;;;;;;2.10;99.90;;;;;;5075327;28;19920;-60
2023/01/19 02:16:50;;;;;;;;;;;2.10;99.90;;;;;;5075713;28;19999;-60
2023/01/19 02:19:18;;;;;;;;;;;2.00;99.90;;;;;;5075485;28;19910;-60
2023/01/19 02:22:02;;;;;;;;;;;2.10;99.90;;;;;;5075354;28;19916;-60
2023/01/19 02:24:28;;;;;;;;;;;2.10;99.90;;;;;;5075370;28;20043;-60
2023/01/19 02:26:54;;;;;;;;;;;2.10;99.90;;;;;;5075217;28;19951;-60
2023/01/19 02:29:21;;;;;;;;;;;2.10;99.90;;;;;;5075530;28;20413;-60
2023/01/19 02:31:47;;;;;;;;;;;2.10;99.90;;;;;;5075499;28;19915;-61
2023/01/19 02:34:14;;;;;;;;;;;2.10;99.90;;;;;;5075316;28;20369;-62
2023/01/19 02:36:43;;;;;;;;;;;2.20;99.90;;;;;;5075090;28;19966;-62
2023/01/19 02:39:09;;;;;;;;;;;2.20;99.90;;;;;;5075060;28;19908;-61
2023/01/19 02:41:38;;;;;;;;;;;2.20;99.90;;;;;;5075038;28;20362;-61
2023/01/19 02:44:05;;;;;;;;;;;2.20;99.90;;;;;;5075219;28;19909;-60
2023/01/19 02:46:31;;;;;;;;;;;2.20;99.90;;;;;;5074908;28;19912;-60
2023/01/19 02:48:57;;;;;;;;;;;2.20;99.90;;;;;;5075144;28;20283;-61
2023/01/19 02:51:23;;;;;;;;;;;2.30;99.90;;;;;;5075046;28;19958;-60
2023/01/19 02:54:11;;;;;;;;;;;2.30;99.90;;;;;;5074942;28;19913;-60
2023/01/19 02:56:56;;;;;;;;;;;2.30;99.90;;;;;;5074007;28;19908;-60
2023/01/19 02:59:27;;;;;;;;;;;2.30;99.90;;;;;;5074505;28;19913;-60
2023/01/19 03:02:08;;;;;;;;;;;2.40;99.90;;;;;;5074875;28;19909;-61
2023/01/19 03:04:48;;;;;;;;;;;2.40;99.90;;;;;;5074855;28;19946;-61
2023/01/19 03:07:16;;;;;;;;;;;2.40;99.90;;;;;;5074773;28;19909;-60
2023/01/19 03:10:01;;;;;;;;;;;2.40;99.90;;;;;;5074490;28;19916;-61
2023/01/19 03:15:11;;;;;;;;;;;2.40;99.90;;;;;;5111690;27;20292;-59
2023/01/19 03:17:37;;;;;;;;;;;2.40;99.90;;;;;;5111581;28;19915;-60
2023/01/19 03:20:03;;;;;;;;;;;2.50;99.90;;;;;;5111739;28;19908;-60
2023/01/19 03:22:29;;;;;;;;;;;2.50;99.90;;;;;;5111455;28;19995;-60
2023/01/19 03:24:58;;;;;;;;;;;2.40;99.90;;;;;;5111674;28;19939;-60
2023/01/19 03:27:25;;;;;;;;;;;2.50;99.90;;;;;;5111403;28;20380;-60
2023/01/19 03:29:53;;;;;;;;;;;2.50;99.90;;;;;;5111331;28;20401;-60
2023/01/19 03:32:20;;;;;;;;;;;2.50;99.90;;;;;;5111287;28;20365;-60
2023/01/19 03:34:46;;;;;;;;;;;2.50;99.90;;;;;;5111152;28;19994;-60
2023/01/19 03:37:13;;;;;;;;;;;2.40;99.90;;;;;;5111439;28;19909;-60
2023/01/19 03:39:38;;;;;;;;;;;2.40;99.90;;;;;;5111255;28;19908;-60
2023/01/19 03:42:05;;;;;;;;;;;2.50;99.90;;;;;;5111313;28;20258;-60
2023/01/19 03:44:32;;;;;;;;;;;2.40;99.90;;;;;;5111307;28;19908;-60
2023/01/19 03:46:58;;;;;;;;;;;2.50;99.90;;;;;;5111236;28;19909;-60
2023/01/19 03:49:23;;;;;;;;;;;2.50;99.90;;;;;;5110941;28;19915;-60
2023/01/19 03:51:49;;;;;;;;;;;2.50;99.90;;;;;;5110928;28;20392;-60
2023/01/19 03:54:14;;;;;;;;;;;2.60;99.90;;;;;;5110729;28;19912;-60
2023/01/19 03:56:40;;;;;;;;;;;2.60;99.90;;;;;;5110781;28;19908;-60
2023/01/19 03:59:05;;;;;;;;;;;2.50;99.90;;;;;;5110705;28;20011;-60
2023/01/19 04:01:31;;;;;;;;;;;2.50;99.90;;;;;;5110939;28;19957;-61
2023/01/19 04:03:56;;;;;;;;;;;2.50;99.90;;;;;;5110937;28;19977;-60
2023/01/19 04:06:22;;;;;;;;;;;2.60;99.90;;;;;;5110628;28;19912;-60
2023/01/19 04:08:48;;;;;;;;;;;2.60;99.90;;;;;;5110509;28;19908;-60
2023/01/19 04:11:14;;;;;;;;;;;2.60;99.90;;;;;;5110515;28;19908;-60
2023/01/19 04:13:40;;;;;;;;;;;2.60;99.90;;;;;;5110195;28;19922;-60
2023/01/19 04:16:06;;;;;;;;;;;2.50;99.90;;;;;;5110748;28;19918;-60
2023/01/19 04:18:32;;;;;;;;;;;2.60;99.90;;;;;;5110308;28;19908;-60
2023/01/19 04:20:59;;;;;;;;;;;2.50;99.90;;;;;;5110252;28;19909;-61
2023/01/19 04:23:25;;;;;;;;;;;2.50;99.90;;;;;;5110562;28;19908;-60
2023/01/19 04:25:55;;;;;;;;;;;2.50;99.90;;;;;;5100021;28;19931;-61
2023/01/19 04:28:21;;;;;;;;;;;2.50;99.90;;;;;;5095509;28;20366;-60
2023/01/19 04:30:48;;;;;;;;;;;2.50;99.90;;;;;;5096835;28;19912;-60
2023/01/19 04:33:13;;;;;;;;;;;2.50;99.90;;;;;;5096430;28;20003;-60
2023/01/19 04:35:39;;;;;;;;;;;2.50;99.90;;;;;;5096488;28;19951;-61
2023/01/19 04:38:04;;;;;;;;;;;2.50;99.90;;;;;;5095164;28;19908;-61
2023/01/19 04:40:30;;;;;;;;;;;2.50;99.90;;;;;;5096612;28;19915;-61
2023/01/19 04:42:56;;;;;;;;;;;2.60;99.90;;;;;;5096605;28;19915;-61
2023/01/19 04:45:21;;;;;;;;;;;2.50;99.90;;;;;;5096482;28;19908;-61
2023/01/19 04:47:46;;;;;;;;;;;2.60;99.90;;;;;;5096167;28;20372;-61
2023/01/19 04:50:12;;;;;;;;;;;2.60;99.90;;;;;;5096166;28;19908;-61
2023/01/19 04:52:37;;;;;;;;;;;2.60;99.90;;;;;;5096127;28;19915;-61
2023/01/19 04:55:04;;;;;;;;;;;2.70;99.90;;;;;;5096336;28;19912;-61
2023/01/19 04:57:30;;;;;;;;;;;2.60;99.90;;;;;;5096028;28;19908;-61
2023/01/19 04:59:55;;;;;;;;;;;2.60;99.90;;;;;;5096295;28;19915;-62
2023/01/19 05:02:21;;;;;;;;;;;2.60;99.90;;;;;;5096232;28;20046;-61
2023/01/19 05:04:47;;;;;;;;;;;2.50;99.90;;;;;;5095893;28;20263;-61
2023/01/19 05:07:12;;;;;;;;;;;2.50;99.90;;;;;;5094607;28;19908;-62
2023/01/19 05:09:38;;;;;;;;;;;2.50;99.90;;;;;;5096149;28;19915;-61
2023/01/19 05:12:03;;;;;;;;;;;2.50;99.90;;;;;;5095769;28;19908;-61
2023/01/19 05:14:30;;;;;;;;;;;2.40;99.90;;;;;;5095413;28;19927;-61
2023/01/19 05:16:55;;;;;;;;;;;2.30;99.90;;;;;;5095597;28;19998;-61
2023/01/19 05:19:21;;;;;;;;;;;2.20;99.90;;;;;;5095611;28;19936;-61
2023/01/19 05:21:46;;;;;;;;;;;2.10;99.90;;;;;;5095865;28;19920;-62
2023/01/19 05:24:12;;;;;;;;;;;1.90;99.90;;;;;;5095546;28;19915;-62
2023/01/19 05:26:37;;;;;;;;;;;1.70;99.90;;;;;;5094571;28;20021;-61
2023/01/19 05:29:03;;;;;;;;;;;1.60;99.90;;;;;;5095414;28;19915;-61
2023/01/19 05:31:29;;;;;;;;;;;1.60;99.90;;;;;;5095428;28;19916;-61
2023/01/19 05:33:54;;;;;;;;;;;1.50;99.90;;;;;;5095290;28;19912;-61
2023/01/19 05:36:20;;;;;;;;;;;1.40;99.90;;;;;;5094566;28;20327;-61
2023/01/19 05:38:45;;;;;;;;;;;1.30;99.90;;;;;;5094989;28;19908;-61
2023/01/19 05:41:11;;;;;;;;;;;1.30;99.90;;;;;;5095154;28;19908;-61
2023/01/19 05:43:36;;;;;;;;;;;1.30;99.90;;;;;;5095108;28;19912;-62
2023/01/19 05:46:03;;;;;;;;;;;1.20;99.90;;;;;;5095312;28;19915;-62
2023/01/19 05:48:28;;;;;;;;;;;1.20;99.90;;;;;;5095291;28;19912;-62
2023/01/19 05:50:57;;;;;;;;;;;1.10;99.90;;;;;;5095050;28;20385;-62
2023/01/19 05:53:23;;;;;;;;;;;1.20;99.90;;;;;;5094895;28;19919;-62
2023/01/19 05:55:48;;;;;;;;;;;1.20;99.90;;;;;;5094908;28;19908;-62
2023/01/19 05:58:14;;;;;;;;;;;1.20;99.90;;;;;;5094827;28;19913;-62
2023/01/19 06:00:39;;;;;;;;;;;1.20;99.90;;;;;;5095100;28;19908;-62
2023/01/19 06:03:05;;;;;;;;;;;1.20;99.90;;;;;;5094752;28;19916;-62
2023/01/19 06:05:31;;;;;;;;;;;1.30;99.90;;;;;;5094952;28;20258;-62
2023/01/19 06:07:56;;;;;;;;;;;1.30;99.90;;;;;;5094954;28;19912;-62
2023/01/19 06:10:22;;;;;;;;;;;1.30;99.90;;;;;;5076620;28;19915;-62
2023/01/19 06:12:47;;;;;;;;;;;1.30;99.90;;;;;;5093035;28;20342;-62
2023/01/19 06:15:14;;;;;;;;;;;1.30;99.90;;;;;;5094506;28;20435;-63
2023/01/19 06:17:39;;;;;;;;;;;1.30;99.90;;;;;;5094734;28;19999;-62
2023/01/19 06:20:05;;;;;;;;;;;1.30;99.90;;;;;;5094454;28;20355;-62
2023/01/19 06:22:31;;;;;;;;;;;1.30;99.90;;;;;;5094439;28;19912;-62
2023/01/19 06:24:56;;;;;;;;;;;1.30;99.90;;;;;;5094410;28;20348;-62
2023/01/19 06:27:22;;;;;;;;;;;1.30;99.90;;;;;;5094590;28;19923;-62
2023/01/19 06:29:47;;;;;;;;;;;1.30;99.90;;;;;;5094320;28;19908;-62
2023/01/19 06:32:13;;;;;;;;;;;1.20;99.90;;;;;;5094244;28;19915;-63
2023/01/19 06:34:42;;;;;;;;;;;1.20;99.90;;;;;;5094089;28;19912;-62
2023/01/19 06:37:09;;;;;;;;;;;1.20;99.90;;;;;;5094405;28;19908;-62
2023/01/19 06:39:36;;;;;;;;;;;1.20;99.90;;;;;;5094436;28;19915;-62
2023/01/19 06:42:02;;;;;;;;;;;1.20;99.90;;;;;;5094082;28;19961;-62
2023/01/19 06:44:27;;;;;;;;;;;1.20;99.90;;;;;;5094298;28;19908;-62
2023/01/19 06:46:53;;;;;;;;;;;1.20;99.90;;;;;;5094304;28;20003;-62
2023/01/19 06:49:18;;;;;;;;;;;1.20;99.90;;;;;;5093735;28;19908;-62
2023/01/19 06:51:44;;;;;;;;;;;1.10;99.90;;;;;;5093717;28;19915;-62
2023/01/19 06:54:09;;;;;;;;;;;1.10;99.90;;;;;;5093813;28;19916;-62
2023/01/19 06:56:35;;;;;;;;;;;1.10;99.90;;;;;;5093879;28;20046;-62
2023/01/19 06:59:00;;;;;;;;;;;1.10;99.90;;;;;;5094120;28;19908;-62
2023/01/19 07:01:25;;;;;;;;;;;1.10;99.90;;;;;;5093943;28;19908;-62
2023/01/19 07:03:51;;;;;;;;;;;1.10;99.90;;;;;;5093788;28;19909;-62
2023/01/19 07:06:17;;;;;;;;;;;1.10;99.90;;;;;;5093744;28;19912;-63
2023/01/19 07:08:42;;;;;;;;;;;1.10;99.90;;;;;;5093971;28;19930;-63
2023/01/19 07:11:10;;;;;;;;;;;1.10;99.90;;;;;;5093753;28;19908;-63
2023/01/19 07:13:37;;;;;;;;;;;1.10;99.90;;;;;;5093421;28;20446;-62
2023/01/19 07:16:03;;;;;;;;;;;1.20;99.90;;;;;;5093988;28;19908;-63
2023/01/19 07:18:29;;;;;;;;;;;1.10;99.90;;;;;;5093862;28;19952;-62
2023/01/19 07:20:56;;;;;;;;;;;1.10;99.90;;;;;;5093569;28;20281;-63
2023/01/19 07:23:21;;;;;;;;;;;1.10;99.90;;;;;;5093589;28;20330;-63
2023/01/19 07:25:46;;;;;;;;;;;1.00;99.90;;;;;;5092376;28;19969;-63
2023/01/19 07:28:14;;;;;;;;;;;1.00;99.90;;;;;;5093568;28;19909;-63
2023/01/19 07:30:40;;;;;;;;;;;1.00;99.90;;;;;;5093772;28;19908;-63
2023/01/19 07:33:06;;;;;;;;;;;1.00;99.90;;;;;;5093414;28;19963;-63
2023/01/19 07:35:31;;;;;;;;;;;1.00;99.90;;;;;;5093773;28;19962;-63
2023/01/19 07:37:57;;;;;;;;;;;1.00;99.90;;;;;;5093474;28;19915;-62
2023/01/19 07:40:23;;;;;;;;;;;1.10;99.90;;;;;;5093391;28;20009;-62
2023/01/19 07:42:49;;;;;;;;;;;1.10;99.90;;;;;;5093408;28;20008;-63
2023/01/19 07:45:15;;;;;;;;;;;1.10;99.90;;;;;;5093696;28;20007;-63
2023/01/19 07:47:41;;;;;;;;;;;1.10;99.90;;;;;;5093649;28;19908;-63
2023/01/19 07:50:07;;;;;;;;;;;1.20;99.90;;;;;;5093336;28;20278;-63
2023/01/19 07:52:33;;;;;;;;;;;1.20;99.90;;;;;;5093318;28;19915;-62
2023/01/19 07:54:58;;;;;;;;;;;1.20;99.90;;;;;;5093252;28;19912;-63
2023/01/19 07:57:24;;;;;;;;;;;1.10;99.90;;;;;;5093259;28;19990;-62
2023/01/19 07:59:49;;;;;;;;;;;1.20;99.90;;;;;;5092434;28;20377;-63
2023/01/19 08:02:15;;;;;;;;;;;1.20;99.90;;;;;;5095548;28;19915;-63
2023/01/19 08:04:40;;;;;;;;;;;1.20;99.90;;;;;;5096865;28;19908;-63
2023/01/19 08:07:05;;;;;;;;;;;1.20;99.90;;;;;;5096515;28;19951;-64
2023/01/19 08:09:31;;;;;;;;;;;1.30;99.90;;;;;;5097200;28;19942;-62
2023/01/19 08:11:57;;;;;;;;;;;1.20;99.90;;;;;;5096922;28;19912;-62
2023/01/19 08:14:22;;;;;;;;;;;1.30;99.90;;;;;;5096587;28;19920;-63
2023/01/19 08:16:48;;;;;;;;;;;1.30;99.90;;;;;;5096788;28;20380;-63
2023/01/19 08:19:13;;;;;;;;;;;1.20;99.90;;;;;;5097010;28;19908;-63
2023/01/19 08:21:38;;;;;;;;;;;1.20;99.90;;;;;;5096703;28;20277;-63
2023/01/19 08:24:04;;;;;;;;;;;1.20;99.90;;;;;;5096909;28;19931;-63
2023/01/19 08:26:31;;;;;;;;;;;1.20;99.90;;;;;;5095367;28;20011;-63
2023/01/19 08:28:58;;;;;;;;;;;1.20;99.90;;;;;;5096566;28;19961;-63
2023/01/19 08:31:24;;;;;;;;;;;1.20;99.90;;;;;;5096492;28;19908;-63
2023/01/19 08:33:49;;;;;;;;;;;1.30;99.90;;;;;;5096390;28;19918;-63
2023/01/19 08:36:15;;;;;;;;;;;1.40;99.90;;;;;;5096555;28;19915;-64
2023/01/19 08:38:43;;;;;;;;;;;1.40;99.90;;;;;;5096655;28;19908;-63
2023/01/19 08:41:09;;;;;;;;;;;1.40;99.90;;;;;;5096612;28;20294;-63
2023/01/19 08:43:34;;;;;;;;;;;1.40;99.90;;;;;;5096571;28;19908;-63
2023/01/19 08:46:00;;;;;;;;;;;1.40;99.90;;;;;;5096272;28;19908;-63
2023/01/19 08:48:25;;;;;;;;;;;1.50;99.90;;;;;;5096473;28;20315;-63
2023/01/19 08:50:51;;;;;;;;;;;1.50;99.90;;;;;;5096204;28;19916;-63
2023/01/19 08:53:18;;;;;;;;;;;1.50;99.90;;;;;;5096306;28;19939;-62
2023/01/19 08:55:43;;;;;;;;;;;1.50;99.90;;;;;;5095226;28;19961;-63
2023/01/19 08:58:08;;;;;;;;;;;1.50;99.90;;;;;;5096032;28;20406;-63
2023/01/19 09:00:36;;;;;;;;;;;1.60;99.90;;;;;;5096223;28;19908;-62
2023/01/19 09:03:03;;;;;;;;;;;1.60;99.90;;;;;;5096219;28;20273;-63
2023/01/19 09:05:34;;;;;;;;;;;1.70;99.90;;;;;;5095823;28;19908;-63
2023/01/19 09:08:01;;;;;;;;;;;1.70;99.90;;;;;;5096126;28;19947;-63
2023/01/19 09:10:28;;;;;;;;;;;1.70;99.90;;;;;;5095961;28;20319;-63
2023/01/19 09:12:53;;;;;;;;;;;1.70;99.90;;;;;;5095579;28;19961;-63
2023/01/19 09:15:19;;;;;;;;;;;1.70;99.90;;;;;;5095636;28;19904;-63
2023/01/19 09:17:44;;;;;;;;;;;1.70;99.90;;;;;;5095589;28;19929;-63
2023/01/19 09:20:10;;;;;;;;;;;1.70;99.90;;;;;;5095630;28;19914;-63
2023/01/19 09:22:36;;;;;;;;;;;1.80;99.90;;;;;;5095562;28;20436;-63
2023/01/19 09:25:01;;;;;;;;;;;1.70;99.90;;;;;;5095739;28;19951;-63
2023/01/19 09:27:26;;;;;;;;;;;1.70;99.90;;;;;;5095673;28;19935;-63
2023/01/19 09:29:52;;;;;;;;;;;1.70;99.90;;;;;;5095371;28;20331;-63
2023/01/19 09:32:19;;;;;;;;;;;1.70;99.90;;;;;;5095288;28;19915;-63
2023/01/19 09:34:45;;;;;;;;;;;1.70;99.90;;;;;;5095513;28;20055;-63
2023/01/19 09:37:10;;;;;;;;;;;1.60;99.90;;;;;;5094122;28;19959;-63
2023/01/19 09:39:36;;;;;;;;;;;1.60;99.90;;;;;;5095013;28;19908;-63
2023/01/19 09:42:08;;;;;;;;;;;1.60;99.90;;;;;;5095049;28;19991;-63
2023/01/19 09:44:34;;;;;;;;;;;1.50;99.90;;;;;;5094951;28;20263;-63
2023/01/19 09:47:01;;;;;;;;;;;1.60;99.90;;;;;;5094899;28;19915;-63
2023/01/19 09:49:32;;;;;;;;;;;1.60;99.90;;;;;;5093575;28;20396;-62
2023/01/19 09:51:58;;;;;;;;;;;1.60;99.90;;;;;;5095150;28;19914;-62
2023/01/19 09:54:43;;;;;;;;;;;1.50;99.90;;;;;;5095185;28;19912;-63
2023/01/19 09:57:10;;;;;;;;;;;1.60;99.90;;;;;;5094761;28;20289;-63
2023/01/19 09:59:37;;;;;;;;;;;1.60;99.90;;;;;;5095093;28;20431;-63
2023/01/19 10:02:22;;;;;;;;;;;1.60;99.90;;;;;;5094823;28;19914;-62
2023/01/19 10:04:58;;;;;;;;;;;1.70;99.90;;;;;;5094611;28;19909;-63
2023/01/19 10:07:29;;;;;;;;;;;1.70;99.90;;;;;;5094873;28;20003;-62
2023/01/19 10:10:06;;;;;;;;;;;1.80;99.90;;;;;;5094816;28;19916;-62
2023/01/19 10:12:40;;;;;;;;;;;1.80;99.90;;;;;;5094801;28;20350;-62
2023/01/19 10:15:13;;;;;;;;;;;1.90;99.90;;;;;;5094282;28;19920;-62
2023/01/19 10:17:59;;;;;;;;;;;1.90;99.90;;;;;;5094466;28;19908;-62
2023/01/19 10:20:28;;;;;;;;;;;2.00;99.90;;;;;;5094312;28;19999;-62
2023/01/19 10:22:55;;;;;;;;;;;2.00;99.90;;;;;;5094145;28;19919;-62
2023/01/19 10:25:23;;;;;;;;;;;2.00;99.90;;;;;;5094585;28;19947;-63
2023/01/19 10:27:48;;;;;;;;;;;2.10;99.90;;;;;;5094487;28;19915;-63
2023/01/19 10:30:22;;;;;;;;;;;2.20;99.90;;;;;;5094297;28;19908;-62
2023/01/19 10:32:48;;;;;;;;;;;2.20;99.90;;;;;;5094493;28;19908;-63
2023/01/19 10:35:20;;;;;;;;;;;2.20;99.90;;;;;;5094481;28;20262;-63
2023/01/19 10:37:46;;;;;;;;;;;2.30;99.90;;;;;;5094366;28;19908;-63
2023/01/19 10:42:50;;;;;;;;;;;2.30;99.90;;;;;;5070780;28;19919;-62
2023/01/19 10:45:17;;;;;;;;;;;2.30;99.90;;;;;;5070790;28;20019;-61
2023/01/19 10:47:43;;;;;;;;;;;2.50;99.90;;;;;;5070847;28;20370;-62
2023/01/19 10:50:29;;;;;;;;;;;2.50;99.90;;;;;;5070691;28;19955;-62
2023/01/19 10:52:56;;;;;;;;;;;2.50;99.90;;;;;;5070584;28;19915;-62
2023/01/19 10:55:30;;;;;;;;;;;2.60;99.90;;;;;;5070782;28;19951;-62
2023/01/19 10:57:56;;;;;;;;;;;2.60;99.90;;;;;;5070854;28;19909;-61
2023/01/19 11:00:38;;;;;;;;;;;2.70;99.90;;;;;;5070783;28;19909;-61
2023/01/19 11:03:19;;;;;;;;;;;2.70;99.90;;;;;;5070834;28;19909;-61
2023/01/19 11:05:45;;;;;;;;;;;2.70;99.90;;;;;;5070450;28;19962;-62
2023/01/19 11:08:27;;;;;;;;;;;2.70;99.90;;;;;;5070680;28;20377;-61
2023/01/19 11:10:56;;;;;;;;;;;2.70;99.90;;;;;;5070356;28;19908;-61
2023/01/19 11:13:21;;;;;;;;;;;2.70;99.90;;;;;;5086228;28;19932;-62
2023/01/19 11:15:52;;;;;;;;;;;2.70;99.90;;;;;;5070378;28;19909;-62
2023/01/19 11:21:08;;;;;;;;;;;2.70;99.90;;;;;;5071171;28;19919;-71
2023/01/19 11:23:40;;;;;;;;;;;2.70;99.90;;;;;;5086468;28;19967;-71
2023/01/19 11:26:07;;;;;;;;;;;2.70;99.90;;;;;;5070789;28;19958;-62
2023/01/19 11:28:41;;;;;;;;;;;2.80;99.90;;;;;;5070750;28;19908;-61
2023/01/19 11:31:13;;;;;;;;;;;2.80;99.90;;;;;;5070789;28;20374;-61
2023/01/19 11:33:46;;;;;;;;;;;2.70;99.90;;;;;;5070673;28;20382;-61
2023/01/19 11:36:20;;;;;;;;;;;2.80;99.90;;;;;;5070703;28;19909;-61
2023/01/19 11:38:49;;;;;;;;;;;2.80;99.90;;;;;;5070459;28;19909;-61
2023/01/19 11:41:16;;;;;;;;;;;2.80;99.90;;;;;;5070638;28;19908;-61
2023/01/19 11:43:42;;;;;;;;;;;2.70;99.90;;;;;;5070423;28;19913;-61
2023/01/19 11:46:10;;;;;;;;;;;2.80;99.90;;;;;;5069151;28;19909;-62
2023/01/19 11:48:38;;;;;;;;;;;2.80;99.90;;;;;;5070547;28;20282;-63
2023/01/19 11:51:04;;;;;;;;;;;2.90;99.90;;;;;;5067711;28;19915;-62
2023/01/19 11:53:32;;;;;;;;;;;3.00;99.90;;;;;;5070323;28;19956;-62
2023/01/19 11:56:03;;;;;;;;;;;3.00;99.90;;;;;;5070497;28;20020;-61
2023/01/19 11:58:30;;;;;;;;;;;3.00;99.90;;;;;;5068921;28;20003;-62
2023/01/19 12:00:59;;;;;;;;;;;3.10;99.90;;;;;;5070371;28;19913;-62
2023/01/19 12:03:29;;;;;;;;;;;3.20;99.90;;;;;;5070099;28;19908;-62
2023/01/19 12:05:58;;;;;;;;;;;3.20;99.90;;;;;;5070021;28;20354;-62
2023/01/19 12:08:26;;;;;;;;;;;3.30;99.90;;;;;;5069901;28;19951;-62
2023/01/19 12:10:53;;;;;;;;;;;3.30;99.90;;;;;;5070064;28;19908;-62
2023/01/19 12:13:19;;;;;;;;;;;3.30;99.90;;;;;;5069969;28;20002;-63
2023/01/19 12:15:46;;;;;;;;;;;3.30;99.90;;;;;;5069932;28;19958;-62
2023/01/19 12:18:18;;;;;;;;;;;3.20;99.90;;;;;;5069738;28;19909;-62
2023/01/19 12:20:46;;;;;;;;;;;3.30;99.90;;;;;;5087077;28;19920;-62
2023/01/19 12:23:20;;;;;;;;;;;3.30;99.90;;;;;;5072162;28;19916;-62
2023/01/19 12:25:52;;;;;;;;;;;3.20;99.90;;;;;;5090140;28;20350;-62
2023/01/19 12:28:18;;;;;;;;;;;3.10;99.90;;;;;;5089893;28;19912;-62
2023/01/19 12:30:44;;;;;;;;;;;3.10;99.90;;;;;;5086157;28;20366;-62
2023/01/19 12:33:29;;;;;;;;;;;3.10;99.90;;;;;;5076336;28;19908;-62
2023/01/19 12:35:59;;;;;;;;;;;3.10;99.90;;;;;;5076070;28;20336;-62
2023/01/19 12:38:42;;;;;;;;;;;3.10;99.90;;;;;;5076445;28;19909;-63
2023/01/19 12:41:16;;;;;;;;;;;3.20;99.90;;;;;;5076465;28;20361;-63
2023/01/19 12:43:41;;;;;;;;;;;3.40;99.90;;;;;;5076041;28;19915;-62
2023/01/19 12:46:27;;;;;;;;;;;3.40;99.90;;;;;;5076028;28;20301;-62
2023/01/19 12:48:52;;;;;;;;;;;3.40;99.90;;;;;;5075946;28;19912;-62
2023/01/19 12:51:22;;;;;;;;;;;3.40;99.90;;;;;;5076252;28;19909;-62
2023/01/19 12:53:50;;;;;;;;;;;3.50;99.90;;;;;;5076037;28;19909;-62
2023/01/19 12:56:16;;;;;;;;;;;3.50;99.90;;;;;;5076257;28;19916;-62
2023/01/19 12:58:46;;;;;;;;;;;3.50;99.90;;;;;;5075648;28;19908;-62
2023/01/19 13:01:15;;;;;;;;;;;3.40;99.90;;;;;;5075998;28;19931;-62
2023/01/19 13:03:42;;;;;;;;;;;3.40;99.90;;;;;;5075984;28;19947;-62
2023/01/19 13:06:08;;;;;;;;;;;3.50;99.90;;;;;;5075610;28;19908;-62
2023/01/19 13:08:53;;;;;;;;;;;3.40;99.90;;;;;;5075583;28;19999;-62
2023/01/19 13:11:19;;;;;;;;;;;3.40;99.90;;;;;;5075451;28;20207;-63
2023/01/19 13:21:45;;;;;;;;;;;3.50;99.90;;;;;;5070941;28;19913;-62
2023/01/19 13:29:31;;;;;;;;;;;3.50;99.90;;;;;;5070895;28;19913;-62
2023/01/19 13:32:01;;;;;;;;;;;3.50;99.90;;;;;;5070936;28;19917;-62
2023/01/19 13:34:46;;;;;;;;;;;3.40;99.90;;;;;;5071053;28;19958;-62
2023/01/19 13:37:18;;;;;;;;;;;3.30;99.90;;;;;;5070648;28;19916;-62
2023/01/19 13:39:44;;;;;;;;;;;3.30;99.90;;;;;;5070679;28;19909;-62
2023/01/19 13:42:15;;;;;;;;;;;3.40;99.90;;;;;;5070861;28;19936;-62
2023/01/19 13:44:42;;;;;;;;;;;3.30;99.90;;;;;;5070609;28;20007;-62
2023/01/19 13:47:14;;;;;;;;;;;3.30;99.90;;;;;;5070529;28;19908;-62
2023/01/19 13:49:42;;;;;;;;;;;3.30;99.90;;;;;;5070582;28;20366;-61
2023/01/19 13:52:12;;;;;;;;;;;3.20;99.90;;;;;;5070535;28;19932;-62
2023/01/19 13:54:54;;;;;;;;;;;3.30;99.90;;;;;;5070540;28;20290;-62
2023/01/19 13:57:20;;;;;;;;;;;3.30;99.90;;;;;;5070462;28;19988;-62
2023/01/19 13:59:59;;;;;;;;;;;3.40;99.90;;;;;;5070372;28;19915;-62
2023/01/19 14:02:24;;;;;;;;;;;3.40;99.90;;;;;;5070268;28;19908;-62
2023/01/19 14:04:50;;;;;;;;;;;3.40;99.90;;;;;;5070223;28;19909;-63
2023/01/19 14:07:24;;;;;;;;;;;3.40;99.90;;;;;;5070127;28;19996;-63
2023/01/19 14:10:08;;;;;;;;;;;3.40;99.90;;;;;;5070367;28;19951;-63
2023/01/19 14:12:33;;;;;;;;;;;3.50;99.90;;;;;;5070073;28;19909;-64
2023/01/19 14:14:59;;;;;;;;;;;3.50;99.90;;;;;;5069953;28;19916;-62
2023/01/19 14:17:26;;;;;;;;;;;3.50;99.90;;;;;;5070161;28;19908;-62
2023/01/19 14:19:53;;;;;;;;;;;3.50;99.90;;;;;;5070102;28;19909;-62
2023/01/19 14:22:18;;;;;;;;;;;3.40;99.90;;;;;;5069905;28;19999;-61
2023/01/19 14:24:44;;;;;;;;;;;3.30;99.90;;;;;;5069815;28;19956;-61
2023/01/19 14:27:17;;;;;;;;;;;3.20;99.90;;;;;;5070672;28;20362;-62
2023/01/19 14:29:44;;;;;;;;;;;3.10;99.90;;;;;;5089943;28;20007;-62
2023/01/19 14:32:12;;;;;;;;;;;3.20;99.90;;;;;;5090241;28;19962;-62
2023/01/19 14:37:34;;;;;;;;;;;3.30;99.90;;;;;;5137730;27;19921;-62
2023/01/19 14:40:04;;;;;;;;;;;3.30;99.90;;;;;;5047385;28;19913;-62
2023/01/19 14:42:31;;;;;;;;;;;3.40;99.90;;;;;;5047692;27;19909;-62
2023/01/19 14:44:58;;;;;;;;;;;3.40;99.90;;;;;;5047649;27;19909;-62
2023/01/19 14:47:26;;;;;;;;;;;3.40;99.90;;;;;;5046013;27;19992;-62
2023/01/19 14:49:52;;;;;;;;;;;3.40;99.90;;;;;;5047145;28;19909;-62
2023/01/19 14:52:20;;;;;;;;;;;3.40;99.90;;;;;;5047420;27;19909;-62
2023/01/19 14:54:46;;;;;;;;;;;3.30;99.90;;;;;;5047201;28;19909;-62
2023/01/19 14:57:12;;;;;;;;;;;3.30;99.90;;;;;;5047349;27;20336;-62
2023/01/19 14:59:38;;;;;;;;;;;3.30;99.90;;;;;;5047143;28;19941;-62
2023/01/19 15:02:03;;;;;;;;;;;3.30;99.90;;;;;;5047045;28;19909;-62
2023/01/19 15:04:29;;;;;;;;;;;3.30;99.90;;;;;;5046926;28;19963;-62
2023/01/19 15:06:54;;;;;;;;;;;3.30;99.90;;;;;;5047394;27;19957;-64